sensor_id;sensor_type;location;lat;lon;timestamp;temperature;humidity
46041;DHT22;31779;49.124;19.190;2022-08-25T00:01:59;18.80;99.90
46041;DHT22;31779;49.124;19.190;2022-08-25T00:04:29;18.80;99.90
46041;DHT22;31779;49.124;19.190;2022-08-25T00:07:01;18.70;99.90
46041;DHT22;31779;49.124;19.190;2022-08-25T00:09:31;18.70;99.90
46041;DHT22;31779;49.124;19.190;2022-08-25T00:12:00;18.80;99.90
46041;DHT22;31779;49.124;19.190;2022-08-25T00:14:34;18.60;99.90
46041;DHT22;31779;49.124;19.190;2022-08-25T00:17:04;18.70;99.90
46041;DHT22;31779;49.124;19.190;2022-08-25T00:19:35;18.70;99.90
46041;DHT22;31779;49.124;19.190;2022-08-25T00:22:04;18.70;99.90
46041;DHT22;31779;49.124;19.190;2022-08-25T00:24:32;18.60;99.90
46041;DHT22;31779;49.124;19.190;2022-08-25T00:27:00;18.60;99.90
46041;DHT22;31779;49.124;19.190;2022-08-25T00:29:29;18.70;99.90
46041;DHT22;31779;49.124;19.190;2022-08-25T00:31:57;18.60;99.90
46041;DHT22;31779;49.124;19.190;2022-08-25T00:34:29;18.70;99.90
46041;DHT22;31779;49.124;19.190;2022-08-25T00:37:02;18.70;99.90
46041;DHT22;31779;49.124;19.190;2022-08-25T00:39:33;18.70;99.90
46041;DHT22;31779;49.124;19.190;2022-08-25T00:42:01;18.70;99.90
46041;DHT22;31779;49.124;19.190;2022-08-25T00:44:33;18.70;99.90
46041;DHT22;31779;49.124;19.190;2022-08-25T00:47:03;18.70;99.90
46041;DHT22;31779;49.124;19.190;2022-08-25T00:52:12;18.70;99.90
46041;DHT22;31779;49.124;19.190;2022-08-25T00:54:56;18.70;99.90
46041;DHT22;31779;49.124;19.190;2022-08-25T00:57:35;18.70;99.90
46041;DHT22;31779;49.124;19.190;2022-08-25T01:00:15;18.70;99.90
46041;DHT22;31779;49.124;19.190;2022-08-25T01:02:43;18.70;99.90
46041;DHT22;31779;49.124;19.190;2022-08-25T01:05:11;18.70;99.90
46041;DHT22;31779;49.124;19.190;2022-08-25T01:07:40;18.70;99.90
46041;DHT22;31779;49.124;19.190;2022-08-25T01:10:11;18.70;99.90
46041;DHT22;31779;49.124;19.190;2022-08-25T01:12:40;18.60;99.90
46041;DHT22;31779;49.124;19.190;2022-08-25T01:15:12;18.60;99.90
46041;DHT22;31779;49.124;19.190;2022-08-25T01:17:52;18.60;99.90
46041;DHT22;31779;49.124;19.190;2022-08-25T01:20:23;18.60;99.90
46041;DHT22;31779;49.124;19.190;2022-08-25T01:22:56;18.60;99.90
46041;DHT22;31779;49.124;19.190;2022-08-25T01:28:14;18.60;99.90
46041;DHT22;31779;49.124;19.190;2022-08-25T01:30:43;18.60;99.90
46041;DHT22;31779;49.124;19.190;2022-08-25T01:33:11;18.60;99.90
46041;DHT22;31779;49.124;19.190;2022-08-25T01:35:39;18.50;99.90
46041;DHT22;31779;49.124;19.190;2022-08-25T01:38:07;18.40;99.90
46041;DHT22;31779;49.124;19.190;2022-08-25T01:40:37;18.40;99.90
46041;DHT22;31779;49.124;19.190;2022-08-25T01:43:11;18.40;99.90
46041;DHT22;31779;49.124;19.190;2022-08-25T01:45:47;18.40;99.90
46041;DHT22;31779;49.124;19.190;2022-08-25T01:48:15;18.40;99.90
46041;DHT22;31779;49.124;19.190;2022-08-25T01:50:43;18.50;99.90
46041;DHT22;31779;49.124;19.190;2022-08-25T01:53:21;18.40;99.90
46041;DHT22;31779;49.124;19.190;2022-08-25T01:55:49;18.40;99.90
46041;DHT22;31779;49.124;19.190;2022-08-25T01:58:29;18.40;99.90
46041;DHT22;31779;49.124;19.190;2022-08-25T02:01:00;18.30;99.90
46041;DHT22;31779;49.124;19.190;2022-08-25T02:03:29;18.30;99.90
46041;DHT22;31779;49.124;19.190;2022-08-25T02:05:58;18.20;99.90
46041;DHT22;31779;49.124;19.190;2022-08-25T02:08:30;18.10;99.90
46041;DHT22;31779;49.124;19.190;2022-08-25T02:10:58;18.10;99.90
46041;DHT22;31779;49.124;19.190;2022-08-25T02:13:26;18.10;99.90
46041;DHT22;31779;49.124;19.190;2022-08-25T02:16:00;18.10;99.90
46041;DHT22;31779;49.124;19.190;2022-08-25T02:18:29;18.00;99.90
46041;DHT22;31779;49.124;19.190;2022-08-25T02:20:57;18.00;99.90
46041;DHT22;31779;49.124;19.190;2022-08-25T02:23:25;18.10;99.90
46041;DHT22;31779;49.124;19.190;2022-08-25T02:25:53;18.10;99.90
46041;DHT22;31779;49.124;19.190;2022-08-25T02:28:24;18.10;99.90
46041;DHT22;31779;49.124;19.190;2022-08-25T02:30:52;18.10;99.90
46041;DHT22;31779;49.124;19.190;2022-08-25T02:33:28;18.10;99.90
46041;DHT22;31779;49.124;19.190;2022-08-25T02:35:58;18.10;99.90
46041;DHT22;31779;49.124;19.190;2022-08-25T02:38:28;18.00;99.90
46041;DHT22;31779;49.124;19.190;2022-08-25T02:40:57;17.90;99.90
46041;DHT22;31779;49.124;19.190;2022-08-25T02:43:26;18.00;99.90
46041;DHT22;31779;49.124;19.190;2022-08-25T02:45:54;18.00;99.90
46041;DHT22;31779;49.124;19.190;2022-08-25T02:48:22;18.00;99.90
46041;DHT22;31779;49.124;19.190;2022-08-25T02:50:52;18.10;99.90
46041;DHT22;31779;49.124;19.190;2022-08-25T02:53:20;18.10;99.90
46041;DHT22;31779;49.124;19.190;2022-08-25T02:55:48;18.10;99.90
46041;DHT22;31779;49.124;19.190;2022-08-25T02:58:16;18.20;99.90
46041;DHT22;31779;49.124;19.190;2022-08-25T03:00:45;18.10;99.90
46041;DHT22;31779;49.124;19.190;2022-08-25T03:03:14;18.20;99.90
46041;DHT22;31779;49.124;19.190;2022-08-25T03:05:41;18.20;99.90
46041;DHT22;31779;49.124;19.190;2022-08-25T03:08:09;18.20;99.90
46041;DHT22;31779;49.124;19.190;2022-08-25T03:10:37;18.20;99.90
46041;DHT22;31779;49.124;19.190;2022-08-25T03:13:05;18.20;99.90
46041;DHT22;31779;49.124;19.190;2022-08-25T03:15:33;18.20;99.90
46041;DHT22;31779;49.124;19.190;2022-08-25T03:18:05;18.10;99.90
46041;DHT22;31779;49.124;19.190;2022-08-25T03:20:35;18.20;99.90
46041;DHT22;31779;49.124;19.190;2022-08-25T03:23:04;18.20;99.90
46041;DHT22;31779;49.124;19.190;2022-08-25T03:25:33;18.20;99.90
46041;DHT22;31779;49.124;19.190;2022-08-25T03:28:21;18.20;99.90
46041;DHT22;31779;49.124;19.190;2022-08-25T03:30:56;18.20;99.90
46041;DHT22;31779;49.124;19.190;2022-08-25T03:33:25;18.30;99.90
46041;DHT22;31779;49.124;19.190;2022-08-25T03:35:53;18.20;99.90
46041;DHT22;31779;49.124;19.190;2022-08-25T03:38:22;18.20;99.90
46041;DHT22;31779;49.124;19.190;2022-08-25T03:40:51;18.20;99.90
46041;DHT22;31779;49.124;19.190;2022-08-25T03:43:20;18.20;99.90
46041;DHT22;31779;49.124;19.190;2022-08-25T03:45:48;18.30;99.90
46041;DHT22;31779;49.124;19.190;2022-08-25T03:48:16;18.20;99.90
46041;DHT22;31779;49.124;19.190;2022-08-25T03:50:50;18.30;99.90
46041;DHT22;31779;49.124;19.190;2022-08-25T03:53:18;18.30;99.90
46041;DHT22;31779;49.124;19.190;2022-08-25T03:55:46;18.30;99.90
46041;DHT22;31779;49.124;19.190;2022-08-25T03:58:14;18.30;99.90
46041;DHT22;31779;49.124;19.190;2022-08-25T04:00:42;18.30;99.90
46041;DHT22;31779;49.124;19.190;2022-08-25T04:03:10;18.30;99.90
46041;DHT22;31779;49.124;19.190;2022-08-25T04:05:38;18.30;99.90
46041;DHT22;31779;49.124;19.190;2022-08-25T04:08:06;18.40;99.90
46041;DHT22;31779;49.124;19.190;2022-08-25T04:10:36;18.40;99.90
46041;DHT22;31779;49.124;19.190;2022-08-25T04:13:05;18.40;99.90
46041;DHT22;31779;49.124;19.190;2022-08-25T04:15:34;18.40;99.90
46041;DHT22;31779;49.124;19.190;2022-08-25T04:18:02;18.40;99.90
46041;DHT22;31779;49.124;19.190;2022-08-25T04:20:30;18.40;99.90
46041;DHT22;31779;49.124;19.190;2022-08-25T04:22:58;18.30;99.90
46041;DHT22;31779;49.124;19.190;2022-08-25T04:25:27;18.30;99.90
46041;DHT22;31779;49.124;19.190;2022-08-25T04:27:55;18.30;99.90
46041;DHT22;31779;49.124;19.190;2022-08-25T04:30:24;18.20;99.90
46041;DHT22;31779;49.124;19.190;2022-08-25T04:32:52;18.20;99.90
46041;DHT22;31779;49.124;19.190;2022-08-25T04:35:19;18.30;99.90
46041;DHT22;31779;49.124;19.190;2022-08-25T04:37:49;18.30;99.90
46041;DHT22;31779;49.124;19.190;2022-08-25T04:40:17;18.30;99.90
46041;DHT22;31779;49.124;19.190;2022-08-25T04:42:50;18.30;99.90
46041;DHT22;31779;49.124;19.190;2022-08-25T04:45:18;18.30;99.90
46041;DHT22;31779;49.124;19.190;2022-08-25T04:47:46;18.40;99.90
46041;DHT22;31779;49.124;19.190;2022-08-25T04:50:20;18.40;99.90
46041;DHT22;31779;49.124;19.190;2022-08-25T04:52:48;18.40;99.90
46041;DHT22;31779;49.124;19.190;2022-08-25T04:55:16;18.40;99.90
46041;DHT22;31779;49.124;19.190;2022-08-25T04:57:44;18.40;99.90
46041;DHT22;31779;49.124;19.190;2022-08-25T05:00:13;18.50;99.90
46041;DHT22;31779;49.124;19.190;2022-08-25T05:02:40;18.50;99.90
46041;DHT22;31779;49.124;19.190;2022-08-25T05:05:08;18.50;99.90
46041;DHT22;31779;49.124;19.190;2022-08-25T05:07:37;18.50;99.90
46041;DHT22;31779;49.124;19.190;2022-08-25T05:10:05;18.60;99.90
46041;DHT22;31779;49.124;19.190;2022-08-25T05:12:33;18.70;99.90
46041;DHT22;31779;49.124;19.190;2022-08-25T05:15:01;18.80;99.90
46041;DHT22;31779;49.124;19.190;2022-08-25T05:17:50;18.90;99.90
46041;DHT22;31779;49.124;19.190;2022-08-25T05:20:23;19.10;99.90
46041;DHT22;31779;49.124;19.190;2022-08-25T05:22:51;19.20;99.90
46041;DHT22;31779;49.124;19.190;2022-08-25T05:25:19;19.40;99.90
46041;DHT22;31779;49.124;19.190;2022-08-25T05:27:47;19.50;99.90
46041;DHT22;31779;49.124;19.190;2022-08-25T05:30:15;19.60;99.90
46041;DHT22;31779;49.124;19.190;2022-08-25T05:32:43;19.70;99.90
46041;DHT22;31779;49.124;19.190;2022-08-25T05:35:11;19.80;99.90
46041;DHT22;31779;49.124;19.190;2022-08-25T05:37:39;19.90;99.90
46041;DHT22;31779;49.124;19.190;2022-08-25T05:40:08;20.10;99.90
46041;DHT22;31779;49.124;19.190;2022-08-25T05:42:37;20.20;99.90
46041;DHT22;31779;49.124;19.190;2022-08-25T05:45:05;20.30;99.90
46041;DHT22;31779;49.124;19.190;2022-08-25T05:47:34;20.30;99.90
46041;DHT22;31779;49.124;19.190;2022-08-25T05:50:03;20.40;99.90
46041;DHT22;31779;49.124;19.190;2022-08-25T05:52:31;20.50;99.90
46041;DHT22;31779;49.124;19.190;2022-08-25T05:54:59;20.70;99.90
46041;DHT22;31779;49.124;19.190;2022-08-25T05:57:27;20.80;99.90
46041;DHT22;31779;49.124;19.190;2022-08-25T05:59:56;21.20;99.90
46041;DHT22;31779;49.124;19.190;2022-08-25T06:02:23;21.60;99.90
46041;DHT22;31779;49.124;19.190;2022-08-25T06:05:12;22.00;99.90
46041;DHT22;31779;49.124;19.190;2022-08-25T06:07:41;21.50;99.90
46041;DHT22;31779;49.124;19.190;2022-08-25T06:10:09;21.70;99.90
46041;DHT22;31779;49.124;19.190;2022-08-25T06:12:43;21.70;99.90
46041;DHT22;31779;49.124;19.190;2022-08-25T06:15:17;22.10;99.90
46041;DHT22;31779;49.124;19.190;2022-08-25T06:17:47;22.60;99.90
46041;DHT22;31779;49.124;19.190;2022-08-25T06:20:21;23.00;99.90
46041;DHT22;31779;49.124;19.190;2022-08-25T06:22:52;23.40;99.90
46041;DHT22;31779;49.124;19.190;2022-08-25T06:25:22;23.70;99.90
46041;DHT22;31779;49.124;19.190;2022-08-25T06:27:50;23.10;99.90
46041;DHT22;31779;49.124;19.190;2022-08-25T06:30:21;23.20;99.90
46041;DHT22;31779;49.124;19.190;2022-08-25T06:32:55;23.90;99.90
46041;DHT22;31779;49.124;19.190;2022-08-25T06:35:23;24.20;99.90
46041;DHT22;31779;49.124;19.190;2022-08-25T06:37:52;23.90;99.90
46041;DHT22;31779;49.124;19.190;2022-08-25T06:40:19;24.00;99.90
46041;DHT22;31779;49.124;19.190;2022-08-25T06:42:48;24.40;99.90
46041;DHT22;31779;49.124;19.190;2022-08-25T06:45:17;24.50;99.90
46041;DHT22;31779;49.124;19.190;2022-08-25T06:47:45;24.00;99.90
46041;DHT22;31779;49.124;19.190;2022-08-25T06:50:14;24.30;99.90
46041;DHT22;31779;49.124;19.190;2022-08-25T06:52:42;24.60;99.90
46041;DHT22;31779;49.124;19.190;2022-08-25T06:55:10;24.70;99.90
46041;DHT22;31779;49.124;19.190;2022-08-25T06:57:38;25.30;99.90
46041;DHT22;31779;49.124;19.190;2022-08-25T07:00:07;25.50;99.90
46041;DHT22;31779;49.124;19.190;2022-08-25T07:02:38;25.50;99.90
46041;DHT22;31779;49.124;19.190;2022-08-25T07:05:07;25.60;99.90
46041;DHT22;31779;49.124;19.190;2022-08-25T07:07:39;25.80;99.90
46041;DHT22;31779;49.124;19.190;2022-08-25T07:10:11;25.60;99.90
46041;DHT22;31779;49.124;19.190;2022-08-25T07:12:45;25.10;99.90
46041;DHT22;31779;49.124;19.190;2022-08-25T07:15:13;25.60;99.90
46041;DHT22;31779;49.124;19.190;2022-08-25T07:17:47;25.90;99.90
46041;DHT22;31779;49.124;19.190;2022-08-25T07:20:16;26.20;99.90
46041;DHT22;31779;49.124;19.190;2022-08-25T07:22:46;26.40;99.90
46041;DHT22;31779;49.124;19.190;2022-08-25T07:25:15;26.20;99.90
46041;DHT22;31779;49.124;19.190;2022-08-25T07:27:44;26.00;99.90
46041;DHT22;31779;49.124;19.190;2022-08-25T07:30:15;26.50;99.90
46041;DHT22;31779;49.124;19.190;2022-08-25T07:32:43;26.80;99.90
46041;DHT22;31779;49.124;19.190;2022-08-25T07:35:11;26.70;99.90
46041;DHT22;31779;49.124;19.190;2022-08-25T07:37:50;27.00;99.90
46041;DHT22;31779;49.124;19.190;2022-08-25T07:40:26;26.50;99.90
46041;DHT22;31779;49.124;19.190;2022-08-25T07:42:58;26.80;99.90
46041;DHT22;31779;49.124;19.190;2022-08-25T07:45:29;27.40;99.90
46041;DHT22;31779;49.124;19.190;2022-08-25T07:48:00;26.90;99.90
46041;DHT22;31779;49.124;19.190;2022-08-25T07:50:29;27.40;99.90
46041;DHT22;31779;49.124;19.190;2022-08-25T07:52:58;27.50;99.90
46041;DHT22;31779;49.124;19.190;2022-08-25T07:55:27;26.90;99.90
46041;DHT22;31779;49.124;19.190;2022-08-25T07:57:57;27.10;99.90
46041;DHT22;31779;49.124;19.190;2022-08-25T08:00:28;27.60;99.90
46041;DHT22;31779;49.124;19.190;2022-08-25T08:02:58;27.90;99.90
46041;DHT22;31779;49.124;19.190;2022-08-25T08:05:30;28.40;99.70
46041;DHT22;31779;49.124;19.190;2022-08-25T08:07:59;28.80;99.90
46041;DHT22;31779;49.124;19.190;2022-08-25T08:10:27;29.40;99.50
46041;DHT22;31779;49.124;19.190;2022-08-25T08:13:15;30.10;99.00
46041;DHT22;31779;49.124;19.190;2022-08-25T08:15:45;34.30;87.90
46041;DHT22;31779;49.124;19.190;2022-08-25T08:18:14;37.90;75.50
46041;DHT22;31779;49.124;19.190;2022-08-25T08:20:44;36.80;63.30
46041;DHT22;31779;49.124;19.190;2022-08-25T08:23:15;34.50;69.00
46041;DHT22;31779;49.124;19.190;2022-08-25T08:25:43;34.40;70.00
46041;DHT22;31779;49.124;19.190;2022-08-25T08:28:11;34.30;68.80
46041;DHT22;31779;49.124;19.190;2022-08-25T08:30:39;38.90;60.50
46041;DHT22;31779;49.124;19.190;2022-08-25T08:33:21;40.20;60.00
46041;DHT22;31779;49.124;19.190;2022-08-25T08:38:33;43.20;49.70
46041;DHT22;31779;49.124;19.190;2022-08-25T08:43:55;46.40;47.30
46041;DHT22;31779;49.124;19.190;2022-08-25T08:46:39;47.60;41.70
46041;DHT22;31779;49.124;19.190;2022-08-25T08:49:43;49.50;40.10
46041;DHT22;31779;49.124;19.190;2022-08-25T08:52:18;49.90;42.00
46041;DHT22;31779;49.124;19.190;2022-08-25T08:54:57;49.70;37.60
46041;DHT22;31779;49.124;19.190;2022-08-25T08:57:28;50.70;37.00
46041;DHT22;31779;49.124;19.190;2022-08-25T09:00:01;49.90;38.10
46041;DHT22;31779;49.124;19.190;2022-08-25T09:02:42;51.40;37.60
46041;DHT22;31779;49.124;19.190;2022-08-25T09:05:23;48.70;39.70
46041;DHT22;31779;49.124;19.190;2022-08-25T09:08:07;49.70;36.40
46041;DHT22;31779;49.124;19.190;2022-08-25T09:10:59;50.70;38.40
46041;DHT22;31779;49.124;19.190;2022-08-25T09:13:38;53.20;36.80
46041;DHT22;31779;49.124;19.190;2022-08-25T09:16:19;52.30;36.20
46041;DHT22;31779;49.124;19.190;2022-08-25T09:28:37;51.60;36.30
46041;DHT22;31779;49.124;19.190;2022-08-25T09:31:38;50.20;38.10
46041;DHT22;31779;49.124;19.190;2022-08-25T09:34:22;49.10;37.00
46041;DHT22;31779;49.124;19.190;2022-08-25T09:36:51;51.90;36.40
46041;DHT22;31779;49.124;19.190;2022-08-25T09:39:20;52.70;36.00
46041;DHT22;31779;49.124;19.190;2022-08-25T09:41:52;54.00;35.20
46041;DHT22;31779;49.124;19.190;2022-08-25T09:44:32;53.30;35.10
46041;DHT22;31779;49.124;19.190;2022-08-25T09:50:03;56.70;33.00
46041;DHT22;31779;49.124;19.190;2022-08-25T09:52:37;53.60;32.80
46041;DHT22;31779;49.124;19.190;2022-08-25T10:00:23;54.90;35.00
46041;DHT22;31779;49.124;19.190;2022-08-25T10:03:20;56.00;32.70
46041;DHT22;31779;49.124;19.190;2022-08-25T10:08:40;56.50;33.80
46041;DHT22;31779;49.124;19.190;2022-08-25T10:16:47;54.20;34.10
46041;DHT22;31779;49.124;19.190;2022-08-25T10:19:25;54.10;33.90
46041;DHT22;31779;49.124;19.190;2022-08-25T10:22:24;56.80;31.60
46041;DHT22;31779;49.124;19.190;2022-08-25T10:24:59;58.70;30.80
46041;DHT22;31779;49.124;19.190;2022-08-25T10:27:36;58.40;29.80
46041;DHT22;31779;49.124;19.190;2022-08-25T10:30:21;58.00;30.50
46041;DHT22;31779;49.124;19.190;2022-08-25T10:35:31;55.90;33.90
46041;DHT22;31779;49.124;19.190;2022-08-25T10:40:55;54.10;30.90
46041;DHT22;31779;49.124;19.190;2022-08-25T10:43:47;56.10;30.90
46041;DHT22;31779;49.124;19.190;2022-08-25T10:46:40;57.30;30.40
46041;DHT22;31779;49.124;19.190;2022-08-25T10:52:08;55.60;30.10
46041;DHT22;31779;49.124;19.190;2022-08-25T10:57:56;52.90;34.70
46041;DHT22;31779;49.124;19.190;2022-08-25T11:00:33;53.80;32.50
46041;DHT22;31779;49.124;19.190;2022-08-25T11:05:46;52.20;33.80
46041;DHT22;31779;49.124;19.190;2022-08-25T11:08:38;51.90;34.40
46041;DHT22;31779;49.124;19.190;2022-08-25T11:11:30;50.70;33.60
46041;DHT22;31779;49.124;19.190;2022-08-25T11:14:08;48.20;35.10
46041;DHT22;31779;49.124;19.190;2022-08-25T11:16:52;47.70;35.10
46041;DHT22;31779;49.124;19.190;2022-08-25T11:19:29;46.90;37.40
46041;DHT22;31779;49.124;19.190;2022-08-25T11:27:05;43.90;40.90
46041;DHT22;31779;49.124;19.190;2022-08-25T11:29:41;43.40;38.10
46041;DHT22;31779;49.124;19.190;2022-08-25T11:32:10;43.30;40.80
46041;DHT22;31779;49.124;19.190;2022-08-25T11:34:39;42.90;37.90
46041;DHT22;31779;49.124;19.190;2022-08-25T11:37:20;42.20;42.60
46041;DHT22;31779;49.124;19.190;2022-08-25T11:43:03;39.00;42.40
46041;DHT22;31779;49.124;19.190;2022-08-25T11:51:00;37.80;48.00
46041;DHT22;31779;49.124;19.190;2022-08-25T11:53:34;36.00;44.70
46041;DHT22;31779;49.124;19.190;2022-08-25T11:58:57;37.20;45.80
46041;DHT22;31779;49.124;19.190;2022-08-25T12:12:30;36.80;47.30
46041;DHT22;31779;49.124;19.190;2022-08-25T12:37:22;34.40;50.60
46041;DHT22;31779;49.124;19.190;2022-08-25T12:42:38;34.80;51.30
46041;DHT22;31779;49.124;19.190;2022-08-25T12:47:36;35.00;51.80
46041;DHT22;31779;49.124;19.190;2022-08-25T12:50:44;34.70;52.60
46041;DHT22;31779;49.124;19.190;2022-08-25T12:53:21;34.00;51.60
46041;DHT22;31779;49.124;19.190;2022-08-25T12:55:59;34.60;50.80
46041;DHT22;31779;49.124;19.190;2022-08-25T12:59:21;34.70;48.80
46041;DHT22;31779;49.124;19.190;2022-08-25T13:01:56;34.70;47.80
46041;DHT22;31779;49.124;19.190;2022-08-25T13:04:44;34.70;51.30
46041;DHT22;31779;49.124;19.190;2022-08-25T13:10:31;33.20;54.90
46041;DHT22;31779;49.124;19.190;2022-08-25T13:16:03;33.20;51.80
46041;DHT22;31779;49.124;19.190;2022-08-25T13:18:35;33.00;51.90
46041;DHT22;31779;49.124;19.190;2022-08-25T13:21:23;33.20;55.00
46041;DHT22;31779;49.124;19.190;2022-08-25T13:23:55;32.70;52.50
46041;DHT22;31779;49.124;19.190;2022-08-25T13:26:36;32.30;55.40
46041;DHT22;31779;49.124;19.190;2022-08-25T13:29:20;32.20;53.90
46041;DHT22;31779;49.124;19.190;2022-08-25T13:31:55;31.90;54.60
46041;DHT22;31779;49.124;19.190;2022-08-25T13:34:26;31.80;57.10
46041;DHT22;31779;49.124;19.190;2022-08-25T13:37:10;31.30;59.90
46041;DHT22;31779;49.124;19.190;2022-08-25T13:42:42;30.70;65.30
46041;DHT22;31779;49.124;19.190;2022-08-25T13:45:25;30.20;65.70
46041;DHT22;31779;49.124;19.190;2022-08-25T13:47:56;29.80;66.50
46041;DHT22;31779;49.124;19.190;2022-08-25T14:01:11;29.30;72.70
46041;DHT22;31779;49.124;19.190;2022-08-25T14:06:47;29.90;65.40
46041;DHT22;31779;49.124;19.190;2022-08-25T14:09:17;30.00;61.90
46041;DHT22;31779;49.124;19.190;2022-08-25T14:11:56;30.00;63.50
46041;DHT22;31779;49.124;19.190;2022-08-25T14:19:29;30.00;59.70
46041;DHT22;31779;49.124;19.190;2022-08-25T14:21:58;30.30;61.40
46041;DHT22;31779;49.124;19.190;2022-08-25T14:24:33;30.10;64.20
46041;DHT22;31779;49.124;19.190;2022-08-25T14:27:07;30.20;59.50
46041;DHT22;31779;49.124;19.190;2022-08-25T14:29:38;30.30;63.50
46041;DHT22;31779;49.124;19.190;2022-08-25T14:32:08;30.10;62.00
46041;DHT22;31779;49.124;19.190;2022-08-25T14:34:37;29.90;64.40
46041;DHT22;31779;49.124;19.190;2022-08-25T14:37:14;29.70;61.00
46041;DHT22;31779;49.124;19.190;2022-08-25T14:39:45;29.70;61.30
46041;DHT22;31779;49.124;19.190;2022-08-25T14:42:14;29.80;63.30
46041;DHT22;31779;49.124;19.190;2022-08-25T14:44:43;29.60;65.20
46041;DHT22;31779;49.124;19.190;2022-08-25T14:47:12;29.00;61.10
46041;DHT22;31779;49.124;19.190;2022-08-25T14:49:41;29.20;68.40
46041;DHT22;31779;49.124;19.190;2022-08-25T14:52:18;28.50;70.50
46041;DHT22;31779;49.124;19.190;2022-08-25T14:54:49;28.20;73.90
46041;DHT22;31779;49.124;19.190;2022-08-25T14:57:17;28.10;74.20
46041;DHT22;31779;49.124;19.190;2022-08-25T14:59:47;28.00;74.30
46041;DHT22;31779;49.124;19.190;2022-08-25T15:02:17;27.90;75.30
46041;DHT22;31779;49.124;19.190;2022-08-25T15:04:58;28.00;74.70
46041;DHT22;31779;49.124;19.190;2022-08-25T15:07:28;28.00;70.00
46041;DHT22;31779;49.124;19.190;2022-08-25T15:10:16;27.80;75.00
46041;DHT22;31779;49.124;19.190;2022-08-25T15:12:48;27.80;76.00
46041;DHT22;31779;49.124;19.190;2022-08-25T15:15:21;27.10;79.20
46041;DHT22;31779;49.124;19.190;2022-08-25T15:17:53;27.10;80.10
46041;DHT22;31779;49.124;19.190;2022-08-25T15:20:27;26.80;80.80
46041;DHT22;31779;49.124;19.190;2022-08-25T15:22:55;26.50;82.50
46041;DHT22;31779;49.124;19.190;2022-08-25T15:25:24;26.20;85.90
46041;DHT22;31779;49.124;19.190;2022-08-25T15:27:54;26.50;84.80
46041;DHT22;31779;49.124;19.190;2022-08-25T15:30:22;26.50;87.60
46041;DHT22;31779;49.124;19.190;2022-08-25T15:32:58;26.70;86.60
46041;DHT22;31779;49.124;19.190;2022-08-25T15:35:27;26.70;78.80
46041;DHT22;31779;49.124;19.190;2022-08-25T15:37:55;27.00;84.80
46041;DHT22;31779;49.124;19.190;2022-08-25T15:40:25;27.10;85.10
46041;DHT22;31779;49.124;19.190;2022-08-25T15:42:54;27.20;83.80
46041;DHT22;31779;49.124;19.190;2022-08-25T15:45:22;27.10;77.50
46041;DHT22;31779;49.124;19.190;2022-08-25T15:47:50;27.10;75.60
46041;DHT22;31779;49.124;19.190;2022-08-25T15:50:20;27.10;77.60
46041;DHT22;31779;49.124;19.190;2022-08-25T15:52:52;27.10;78.60
46041;DHT22;31779;49.124;19.190;2022-08-25T15:55:20;27.00;79.30
46041;DHT22;31779;49.124;19.190;2022-08-25T15:57:48;26.90;77.80
46041;DHT22;31779;49.124;19.190;2022-08-25T16:00:17;26.90;77.00
46041;DHT22;31779;49.124;19.190;2022-08-25T16:02:48;26.90;77.90
46041;DHT22;31779;49.124;19.190;2022-08-25T16:05:16;26.90;77.80
46041;DHT22;31779;49.124;19.190;2022-08-25T16:07:52;26.80;77.60
46041;DHT22;31779;49.124;19.190;2022-08-25T16:10:20;26.80;78.90
46041;DHT22;31779;49.124;19.190;2022-08-25T16:12:50;26.70;79.70
46041;DHT22;31779;49.124;19.190;2022-08-25T16:15:18;26.70;79.60
46041;DHT22;31779;49.124;19.190;2022-08-25T16:17:50;26.60;80.90
46041;DHT22;31779;49.124;19.190;2022-08-25T16:20:18;26.50;81.40
46041;DHT22;31779;49.124;19.190;2022-08-25T16:22:50;26.50;81.10
46041;DHT22;31779;49.124;19.190;2022-08-25T16:25:19;26.40;84.00
46041;DHT22;31779;49.124;19.190;2022-08-25T16:27:47;26.30;84.40
46041;DHT22;31779;49.124;19.190;2022-08-25T16:30:16;26.30;84.30
46041;DHT22;31779;49.124;19.190;2022-08-25T16:32:44;26.30;84.20
46041;DHT22;31779;49.124;19.190;2022-08-25T16:35:13;26.30;85.90
46041;DHT22;31779;49.124;19.190;2022-08-25T16:37:42;26.20;85.50
46041;DHT22;31779;49.124;19.190;2022-08-25T16:40:11;26.20;86.40
46041;DHT22;31779;49.124;19.190;2022-08-25T16:42:41;26.10;87.40
46041;DHT22;31779;49.124;19.190;2022-08-25T16:45:09;26.00;88.30
46041;DHT22;31779;49.124;19.190;2022-08-25T16:47:38;25.90;89.40
46041;DHT22;31779;49.124;19.190;2022-08-25T16:50:10;25.90;90.30
46041;DHT22;31779;49.124;19.190;2022-08-25T16:52:38;25.80;91.10
46041;DHT22;31779;49.124;19.190;2022-08-25T16:55:27;25.80;91.50
46041;DHT22;31779;49.124;19.190;2022-08-25T16:58:06;25.70;91.60
46041;DHT22;31779;49.124;19.190;2022-08-25T17:00:40;25.70;92.80
46041;DHT22;31779;49.124;19.190;2022-08-25T17:03:11;25.50;94.00
46041;DHT22;31779;49.124;19.190;2022-08-25T17:05:41;25.50;94.40
46041;DHT22;31779;49.124;19.190;2022-08-25T17:08:09;25.40;95.70
46041;DHT22;31779;49.124;19.190;2022-08-25T17:11:24;25.30;96.70
46041;DHT22;31779;49.124;19.190;2022-08-25T17:13:56;25.20;97.90
46041;DHT22;31779;49.124;19.190;2022-08-25T17:16:27;25.10;98.60
46041;DHT22;31779;49.124;19.190;2022-08-25T17:19:06;25.00;99.90
46041;DHT22;31779;49.124;19.190;2022-08-25T17:21:40;24.90;99.90
46041;DHT22;31779;49.124;19.190;2022-08-25T17:24:12;24.90;99.90
46041;DHT22;31779;49.124;19.190;2022-08-25T17:26:41;24.80;99.90
46041;DHT22;31779;49.124;19.190;2022-08-25T17:29:10;24.70;99.90
46041;DHT22;31779;49.124;19.190;2022-08-25T17:31:38;24.70;99.90
46041;DHT22;31779;49.124;19.190;2022-08-25T17:34:08;24.60;99.90
46041;DHT22;31779;49.124;19.190;2022-08-25T17:36:38;24.50;99.90
46041;DHT22;31779;49.124;19.190;2022-08-25T17:39:08;24.40;99.90
46041;DHT22;31779;49.124;19.190;2022-08-25T17:41:36;24.30;99.90
46041;DHT22;31779;49.124;19.190;2022-08-25T17:44:07;24.30;99.90
46041;DHT22;31779;49.124;19.190;2022-08-25T17:46:36;24.20;99.90
46041;DHT22;31779;49.124;19.190;2022-08-25T17:49:15;24.20;99.90
46041;DHT22;31779;49.124;19.190;2022-08-25T17:51:43;24.10;99.90
46041;DHT22;31779;49.124;19.190;2022-08-25T17:54:12;24.00;99.90
46041;DHT22;31779;49.124;19.190;2022-08-25T17:56:40;24.00;99.90
46041;DHT22;31779;49.124;19.190;2022-08-25T17:59:08;23.90;99.90
46041;DHT22;31779;49.124;19.190;2022-08-25T18:01:38;23.90;99.90